Time;durP1;ratioP1;P1;durP2;ratioP2;P2;SDS_P1;SDS_P2;PMS_P1;PMS_P2;Temp;Humidity;BMP_temperature;BMP_pressure;BME280_temperature;BME280_humidity;BME280_pressure;Samples;Min_cycle;Max_cycle;Signal;HPM_P1;HPM_P2
2021/09/14 00:01:16;;;;;;;2.03;1.30;;;25.70;50.20;;;;;;5027396;28;20353;-58
2021/09/14 00:03:41;;;;;;;1.75;1.40;;;25.70;50.20;;;;;;5038445;28;20017;-60
2021/09/14 00:06:07;;;;;;;2.10;1.30;;;25.70;50.30;;;;;;5047255;28;20033;-58
2021/09/14 00:08:33;;;;;;;1.48;1.20;;;25.70;50.30;;;;;;5037563;28;20121;-52
2021/09/14 00:11:00;;;;;;;1.50;1.23;;;25.70;50.30;;;;;;5029283;28;20053;-54
2021/09/14 00:13:26;;;;;;;1.42;1.10;;;25.70;50.30;;;;;;5054522;28;20068;-52
2021/09/14 00:15:51;;;;;;;1.40;1.20;;;25.70;50.30;;;;;;5036604;28;20060;-60
2021/09/14 00:18:17;;;;;;;1.65;1.20;;;25.70;50.30;;;;;;5042291;28;20037;-55
2021/09/14 00:20:42;;;;;;;1.35;1.10;;;25.70;50.30;;;;;;5032456;28;20457;-57
2021/09/14 00:23:08;;;;;;;1.63;1.13;;;25.70;50.30;;;;;;5040432;28;20033;-56
2021/09/14 00:25:35;;;;;;;1.20;1.00;;;25.60;50.30;;;;;;5041187;28;20033;-53
2021/09/14 00:28:01;;;;;;;1.67;1.23;;;25.70;50.40;;;;;;5026344;28;20124;-59
2021/09/14 00:30:27;;;;;;;1.40;1.15;;;25.60;50.30;;;;;;5031900;28;20053;-52
2021/09/14 00:32:53;;;;;;;2.17;1.50;;;25.70;50.40;;;;;;5041245;28;20068;-52
2021/09/14 00:35:18;;;;;;;1.73;1.30;;;25.70;50.40;;;;;;5035517;28;20029;-51
2021/09/14 00:37:44;;;;;;;1.73;1.20;;;25.60;50.40;;;;;;5042908;28;20374;-47
2021/09/14 00:40:11;;;;;;;1.80;1.33;;;25.60;50.40;;;;;;5027745;28;20114;-59
2021/09/14 00:42:36;;;;;;;1.70;1.27;;;25.60;50.40;;;;;;5026234;28;20502;-54
2021/09/14 00:45:06;;;;;;;1.48;1.20;;;25.60;50.40;;;;;;5031718;28;20149;-52
2021/09/14 00:47:32;;;;;;;1.40;1.17;;;25.60;50.40;;;;;;5060019;28;20357;-53
2021/09/14 00:49:59;;;;;;;1.25;1.10;;;25.60;50.40;;;;;;5034784;28;20026;-51
2021/09/14 00:52:24;;;;;;;1.65;1.17;;;25.60;50.40;;;;;;5026380;28;20071;-52
2021/09/14 00:54:50;;;;;;;1.50;1.20;;;25.60;50.40;;;;;;5035685;28;20040;-57
2021/09/14 00:57:17;;;;;;;1.85;1.25;;;25.60;50.40;;;;;;5045904;28;20077;-50
2021/09/14 00:59:43;;;;;;;1.70;1.20;;;25.60;50.50;;;;;;5065100;28;20102;-57
2021/09/14 01:02:09;;;;;;;1.33;1.20;;;25.60;50.50;;;;;;5041364;28;20087;-52
2021/09/14 01:04:35;;;;;;;1.42;1.17;;;25.50;50.40;;;;;;5037302;28;20029;-50
2021/09/14 01:07:02;;;;;;;1.15;1.00;;;25.50;50.40;;;;;;5037597;28;20039;-58
2021/09/14 01:09:30;;;;;;;1.48;1.17;;;25.50;50.40;;;;;;5043321;28;20090;-57
2021/09/14 01:11:56;;;;;;;1.27;1.17;;;25.60;50.50;;;;;;5032025;28;20022;-51
2021/09/14 01:14:22;;;;;;;1.70;1.30;;;25.50;50.40;;;;;;5045672;28;20052;-58
2021/09/14 01:16:48;;;;;;;1.65;1.20;;;25.50;50.50;;;;;;5042086;28;20028;-61
2021/09/14 01:19:13;;;;;;;1.83;1.20;;;25.50;50.50;;;;;;5029746;28;20547;-60
2021/09/14 01:21:39;;;;;;;1.40;1.10;;;25.50;50.50;;;;;;5030098;28;20034;-58
2021/09/14 01:24:05;;;;;;;1.35;1.05;;;25.50;50.50;;;;;;5030497;28;20035;-54
2021/09/14 01:26:32;;;;;;;1.45;1.20;;;25.50;50.50;;;;;;5047091;28;20111;-56
2021/09/14 01:28:57;;;;;;;1.40;1.17;;;25.50;50.50;;;;;;5031926;28;20136;-56
2021/09/14 01:31:23;;;;;;;1.27;1.10;;;25.50;50.60;;;;;;5049705;28;20112;-53
2021/09/14 01:33:53;;;;;;;1.75;1.30;;;25.50;50.60;;;;;;5029842;28;20481;-52
2021/09/14 01:36:19;;;;;;;;;;;25.50;50.60;;;;;;5036770;28;20082;-51
2021/09/14 01:38:45;;;;;;;1.75;1.30;;;25.50;50.60;;;;;;5048253;28;19909;-58
2021/09/14 01:41:11;;;;;;;1.55;1.10;;;25.40;50.50;;;;;;5049148;28;20429;-51
2021/09/14 01:43:39;;;;;;;1.92;1.20;;;25.40;50.60;;;;;;5036920;28;20064;-52
2021/09/14 01:46:06;;;;;;;1.52;1.20;;;25.40;50.60;;;;;;5037620;28;20105;-54
2021/09/14 01:48:32;;;;;;;1.50;1.20;;;25.50;50.60;;;;;;5048029;28;20030;-58
2021/09/14 01:50:58;;;;;;;1.67;1.20;;;25.50;50.60;;;;;;5029869;28;20013;-58
2021/09/14 01:53:26;;;;;;;1.38;1.10;;;25.40;50.60;;;;;;5045506;28;20111;-58
2021/09/14 01:55:56;;;;;;;1.40;1.10;;;25.50;50.60;;;;;;5040884;28;20033;-52
2021/09/14 01:58:22;;;;;;;1.83;1.30;;;25.40;50.60;;;;;;5034988;28;20029;-60
2021/09/14 02:03:56;;;;;;;2.00;1.30;;;25.40;50.60;;;;;;5033627;28;20120;-50
2021/09/14 02:06:26;;;;;;;1.35;1.15;;;25.40;50.60;;;;;;5047889;28;20119;-54
2021/09/14 02:09:12;;;;;;;1.48;1.13;;;25.40;50.60;;;;;;5047775;28;20033;-58
2021/09/14 02:41:44;;;;;;;1.60;1.20;;;25.40;50.70;;;;;;5049650;28;20028;-57
2021/09/14 03:00:21;;;;;;;1.60;1.20;;;25.30;50.70;;;;;;5046718;28;20052;-56
2021/09/14 03:02:48;;;;;;;1.33;1.10;;;25.30;50.70;;;;;;5028505;28;20034;-58
2021/09/14 03:05:14;;;;;;;1.45;1.10;;;25.30;50.80;;;;;;5030983;28;20040;-51
2021/09/14 03:07:40;;;;;;;1.58;1.10;;;25.20;50.70;;;;;;5043993;28;20107;-54
2021/09/14 03:10:06;;;;;;;1.33;1.10;;;25.20;50.80;;;;;;5045024;28;20125;-60
2021/09/14 03:12:32;;;;;;;1.42;1.10;;;25.30;50.80;;;;;;5057602;28;20029;-59
2021/09/14 03:14:58;;;;;;;1.20;1.00;;;25.30;50.80;;;;;;5045448;28;20025;-55
2021/09/14 03:17:23;;;;;;;1.90;1.30;;;25.30;50.80;;;;;;5028010;28;20105;-48
2021/09/14 03:19:49;;;;;;;1.70;1.20;;;25.30;50.80;;;;;;5041359;28;20029;-54
2021/09/14 03:22:14;;;;;;;1.40;1.10;;;25.20;50.80;;;;;;5046528;28;20800;-51
2021/09/14 03:24:40;;;;;;;1.38;1.13;;;25.20;50.70;;;;;;5028234;28;20022;-57
2021/09/14 03:27:06;;;;;;;1.80;1.30;;;25.20;50.70;;;;;;5030165;28;20100;-55
2021/09/14 03:29:32;;;;;;;1.50;1.08;;;25.20;50.80;;;;;;5037974;28;20083;-58
2021/09/14 03:31:57;;;;;;;2.25;1.20;;;25.20;50.80;;;;;;5037694;28;20045;-52
2021/09/14 03:34:23;;;;;;;1.17;1.00;;;25.20;51.30;;;;;;5041533;28;20055;-58
2021/09/14 03:36:49;;;;;;;1.23;1.05;;;25.20;50.80;;;;;;5040536;28;20460;-59
2021/09/14 03:39:14;;;;;;;1.55;1.10;;;25.20;50.80;;;;;;5033033;28;20025;-51
2021/09/14 03:41:40;;;;;;;1.45;1.15;;;25.20;50.80;;;;;;5038756;28;20059;-54
2021/09/14 03:44:06;;;;;;;1.20;1.10;;;25.20;50.80;;;;;;5035808;28;20030;-54
2021/09/14 03:46:31;;;;;;;1.60;1.30;;;25.20;50.80;;;;;;5031479;28;20037;-56
2021/09/14 03:48:57;;;;;;;1.40;1.10;;;25.20;50.80;;;;;;5038230;28;20029;-57
2021/09/14 03:51:22;;;;;;;1.52;1.20;;;25.20;50.80;;;;;;5043659;28;20108;-57
2021/09/14 03:53:48;;;;;;;1.63;1.10;;;25.20;50.80;;;;;;5036164;28;20099;-59
2021/09/14 03:56:14;;;;;;;1.40;1.05;;;25.20;50.80;;;;;;5046667;28;20412;-47
2021/09/14 03:58:39;;;;;;;1.30;1.10;;;25.10;50.80;;;;;;5028228;28;20044;-53
2021/09/14 04:01:06;;;;;;;1.38;1.13;;;25.10;50.80;;;;;;5045654;28;20052;-52
2021/09/14 04:08:53;;;;;;;1.67;1.20;;;25.10;51.10;;;;;;5041999;28;20025;-56
2021/09/14 04:11:21;;;;;;;1.10;1.00;;;25.10;50.80;;;;;;5036919;28;20032;-53
2021/09/14 04:13:47;;;;;;;1.27;1.10;;;25.10;50.90;;;;;;5035696;28;20032;-51
2021/09/14 04:16:13;;;;;;;1.35;1.00;;;25.10;50.90;;;;;;5040119;28;20481;-58
2021/09/14 04:18:38;;;;;;;1.40;1.10;;;25.10;50.90;;;;;;5034203;28;20064;-57
2021/09/14 04:21:05;;;;;;;1.65;1.20;;;25.10;50.90;;;;;;5037185;28;20120;-56
2021/09/14 04:23:30;;;;;;;1.40;1.10;;;25.10;50.90;;;;;;5026971;28;20048;-53
2021/09/14 04:25:56;;;;;;;1.50;1.10;;;25.10;50.90;;;;;;5026493;28;20230;-60
2021/09/14 04:28:21;;;;;;;1.50;1.10;;;25.10;50.90;;;;;;5025627;28;20040;-52
2021/09/14 04:30:47;;;;;;;1.40;1.17;;;25.10;51.00;;;;;;5027387;28;20538;-57
2021/09/14 04:33:13;;;;;;;1.40;1.20;;;25.10;50.90;;;;;;5034306;28;20041;-59
2021/09/14 04:35:39;;;;;;;1.38;1.10;;;25.10;50.90;;;;;;5045303;28;20504;-56
2021/09/14 04:38:05;;;;;;;1.45;1.10;;;25.10;50.90;;;;;;5041509;28;20488;-56
2021/09/14 04:40:31;;;;;;;2.00;1.20;;;25.10;50.90;;;;;;5035416;28;20028;-60
2021/09/14 04:42:57;;;;;;;1.60;1.30;;;25.10;50.90;;;;;;5043187;28;20037;-52
2021/09/14 04:45:23;;;;;;;1.58;1.20;;;25.10;50.90;;;;;;5041756;28;20070;-59
2021/09/14 04:47:48;;;;;;;1.45;1.10;;;25.10;50.90;;;;;;5031918;28;20048;-59
2021/09/14 04:50:14;;;;;;;1.55;1.10;;;25.00;50.90;;;;;;5042745;28;20102;-58
2021/09/14 04:52:40;;;;;;;1.67;1.20;;;25.00;50.90;;;;;;5039449;28;20104;-59
2021/09/14 04:55:06;;;;;;;1.30;1.10;;;25.00;50.80;;;;;;5048863;28;20168;-60
2021/09/14 04:57:32;;;;;;;1.83;1.10;;;25.00;50.90;;;;;;5049441;28;20139;-53
2021/09/14 04:59:57;;;;;;;1.48;1.15;;;25.00;50.90;;;;;;5038879;28;20132;-50
2021/09/14 05:02:23;;;;;;;1.50;1.27;;;25.00;50.90;;;;;;5030873;28;20561;-54
2021/09/14 05:04:48;;;;;;;1.50;1.20;;;25.00;50.90;;;;;;5045043;28;20022;-59
2021/09/14 05:07:14;;;;;;;2.20;1.20;;;25.00;50.90;;;;;;5046807;28;20040;-57
2021/09/14 05:09:40;;;;;;;1.63;1.17;;;25.00;50.90;;;;;;5038484;28;20533;-52
2021/09/14 05:12:06;;;;;;;1.30;1.10;;;25.00;50.90;;;;;;5037082;28;20112;-58
2021/09/14 05:14:31;;;;;;;1.70;1.13;;;25.00;50.80;;;;;;5049441;28;20040;-53
2021/09/14 05:16:57;;;;;;;1.45;1.17;;;25.00;50.90;;;;;;5043560;28;20057;-54
2021/09/14 05:19:31;;;;;;;1.15;1.05;;;25.00;50.80;;;;;;5046570;28;20059;-58
2021/09/14 05:21:58;;;;;;;1.30;1.13;;;24.90;50.80;;;;;;5042964;28;20042;-55
2021/09/14 05:24:25;;;;;;;1.40;1.10;;;24.90;50.80;;;;;;5035725;28;20633;-59
2021/09/14 05:26:51;;;;;;;1.48;1.20;;;25.00;50.90;;;;;;5041502;28;20030;-54
2021/09/14 05:29:16;;;;;;;1.42;1.23;;;25.00;51.00;;;;;;5034845;28;20033;-58
2021/09/14 05:31:42;;;;;;;1.60;1.30;;;25.00;51.10;;;;;;5043460;28;20045;-53
2021/09/14 05:34:08;;;;;;;1.75;1.20;;;25.00;51.00;;;;;;5030664;28;20032;-54
2021/09/14 05:36:33;;;;;;;1.70;1.30;;;25.00;50.80;;;;;;5046532;28;20075;-53
2021/09/14 05:38:59;;;;;;;2.00;1.50;;;25.10;50.70;;;;;;5030297;28;20136;-54
2021/09/14 05:41:25;;;;;;;1.98;1.42;;;25.10;50.50;;;;;;5029502;28;20022;-57
2021/09/14 05:43:50;;;;;;;1.80;1.30;;;25.10;50.40;;;;;;5039951;28;20041;-60
2021/09/14 05:46:16;;;;;;;2.63;1.65;;;25.10;50.20;;;;;;5046011;28;20043;-57
2021/09/14 05:48:41;;;;;;;2.33;1.60;;;25.10;50.10;;;;;;5031014;28;20729;-58
2021/09/14 05:51:07;;;;;;;1.75;1.48;;;25.20;50.10;;;;;;5039126;28;20389;-55
2021/09/14 05:53:34;;;;;;;2.10;1.60;;;25.10;50.00;;;;;;5041638;28;20050;-56
2021/09/14 05:56:00;;;;;;;2.45;1.50;;;25.20;49.90;;;;;;5050160;28;20021;-60
2021/09/14 05:58:25;;;;;;;1.90;1.50;;;25.20;49.80;;;;;;5039266;28;20560;-55
2021/09/14 06:00:51;;;;;;;3.38;1.50;;;25.20;49.80;;;;;;5029018;28;20033;-56
2021/09/14 06:03:17;;;;;;;2.28;1.80;;;25.20;49.80;;;;;;5039092;28;20044;-59
2021/09/14 06:05:42;;;;;;;2.42;1.92;;;25.30;49.80;;;;;;5053421;28;20048;-50
2021/09/14 06:08:08;;;;;;;2.20;1.98;;;25.30;49.60;;;;;;5063282;28;20040;-56
2021/09/14 06:10:34;;;;;;;2.85;1.85;;;25.40;49.70;;;;;;5045442;28;20050;-52
2021/09/14 06:12:59;;;;;;;2.38;1.70;;;25.40;49.50;;;;;;5055467;28;20017;-55
2021/09/14 06:15:25;;;;;;;2.53;1.90;;;25.40;49.50;;;;;;5058044;28;20040;-51
2021/09/14 06:17:51;;;;;;;2.55;1.88;;;25.40;49.40;;;;;;5044496;28;20029;-57
2021/09/14 06:20:16;;;;;;;2.80;2.03;;;25.40;49.30;;;;;;5032893;28;20047;-51
2021/09/14 06:22:42;;;;;;;3.17;2.33;;;25.40;49.30;;;;;;5043209;28;20125;-54
2021/09/14 06:25:08;;;;;;;2.60;2.13;;;25.40;49.30;;;;;;5040630;28;20025;-59
2021/09/14 06:27:34;;;;;;;2.70;2.10;;;25.40;49.20;;;;;;5030901;28;20030;-52
2021/09/14 06:29:59;;;;;;;2.88;2.20;;;25.50;49.20;;;;;;5032299;28;20022;-55
2021/09/14 06:32:25;;;;;;;2.80;2.00;;;25.50;49.20;;;;;;5036965;28;20070;-56
2021/09/14 06:34:51;;;;;;;3.33;2.15;;;25.50;49.10;;;;;;5043193;28;20036;-58
2021/09/14 06:37:16;;;;;;;2.60;2.10;;;25.50;49.10;;;;;;5046960;28;20559;-57
2021/09/14 06:39:42;;;;;;;2.83;1.90;;;25.50;49.10;;;;;;5036348;28;20112;-58
2021/09/14 06:42:08;;;;;;;2.90;2.20;;;25.50;49.10;;;;;;5038110;28;20097;-58
2021/09/14 06:44:33;;;;;;;2.70;2.13;;;25.60;49.10;;;;;;5037176;28;20124;-58
2021/09/14 06:47:00;;;;;;;2.40;2.00;;;25.60;49.10;;;;;;5036874;28;20421;-58
2021/09/14 06:49:28;;;;;;;3.95;2.30;;;25.60;49.10;;;;;;5042096;28;20027;-54
2021/09/14 06:51:54;;;;;;;2.80;2.10;;;25.60;49.10;;;;;;5028270;28;20028;-57
2021/09/14 06:54:20;;;;;;;2.80;2.10;;;25.60;49.00;;;;;;5038249;28;20026;-58
2021/09/14 06:56:46;;;;;;;2.45;1.90;;;25.70;49.00;;;;;;5037321;28;20537;-58
2021/09/14 06:59:12;;;;;;;2.72;2.20;;;25.70;49.00;;;;;;5027942;28;20033;-58
2021/09/14 07:01:37;;;;;;;2.65;2.10;;;25.70;49.00;;;;;;5030603;28;20033;-51
2021/09/14 07:04:03;;;;;;;2.78;2.20;;;25.70;49.00;;;;;;5036542;28;20474;-59
2021/09/14 07:06:29;;;;;;;3.10;2.30;;;25.70;49.00;;;;;;5042460;28;20033;-55
2021/09/14 07:08:54;;;;;;;2.80;2.13;;;25.70;49.00;;;;;;5039823;28;20023;-49
2021/09/14 07:11:20;;;;;;;2.53;2.25;;;25.70;49.00;;;;;;5046066;28;20052;-58
2021/09/14 07:13:45;;;;;;;2.88;2.10;;;25.80;49.00;;;;;;5034917;28;20041;-58
2021/09/14 07:16:12;;;;;;;2.92;2.20;;;25.80;49.00;;;;;;5043577;28;20033;-59
2021/09/14 07:18:38;;;;;;;2.60;2.10;;;25.80;49.00;;;;;;5042543;28;20025;-56
2021/09/14 07:21:05;;;;;;;3.35;2.40;;;25.80;49.00;;;;;;5042586;28;20078;-52
2021/09/14 07:23:31;;;;;;;2.85;2.10;;;25.80;49.00;;;;;;5036957;28;20361;-54
2021/09/14 07:25:56;;;;;;;3.30;2.50;;;25.80;48.90;;;;;;5039004;28;20024;-48
2021/09/14 07:28:22;;;;;;;2.88;2.30;;;25.80;49.00;;;;;;5034430;28;20021;-52
2021/09/14 07:30:47;;;;;;;3.25;2.30;;;25.80;49.10;;;;;;5027947;28;20351;-52
2021/09/14 07:33:13;;;;;;;2.20;1.90;;;25.90;49.10;;;;;;5029804;28;20041;-59
2021/09/14 07:35:39;;;;;;;2.28;1.90;;;25.90;49.10;;;;;;5034831;28;20021;-58
2021/09/14 07:38:05;;;;;;;3.05;2.10;;;25.90;49.00;;;;;;5038104;28;20056;-56
2021/09/14 07:40:31;;;;;;;2.92;1.90;;;25.90;49.00;;;;;;5035992;28;20647;-56
2021/09/14 07:42:57;;;;;;;2.53;1.95;;;25.90;49.00;;;;;;5048998;28;20086;-56
2021/09/14 07:45:24;;;;;;;2.88;2.10;;;26.00;49.10;;;;;;5045766;28;20079;-48
2021/09/14 07:47:50;;;;;;;2.60;2.05;;;26.00;49.10;;;;;;5041298;28;20436;-57
2021/09/14 07:50:16;;;;;;;2.70;2.10;;;26.00;49.10;;;;;;5034148;28;20115;-52
2021/09/14 07:52:42;;;;;;;2.60;2.00;;;26.00;49.00;;;;;;5035864;28;20106;-53
2021/09/14 07:55:08;;;;;;;2.55;1.90;;;26.00;49.00;;;;;;5043804;28;20045;-58
2021/09/14 07:57:34;;;;;;;2.65;2.00;;;26.00;49.10;;;;;;5037537;28;20128;-57
2021/09/14 07:59:59;;;;;;;2.97;2.17;;;26.00;49.10;;;;;;5044533;28;20112;-58
2021/09/14 08:02:25;;;;;;;2.38;1.90;;;26.00;49.10;;;;;;5052036;28;20425;-59
2021/09/14 08:04:51;;;;;;;2.42;1.80;;;26.10;49.20;;;;;;5043409;28;20144;-51
2021/09/14 08:07:18;;;;;;;3.13;2.25;;;26.10;49.10;;;;;;5033899;28;20140;-45
2021/09/14 08:09:44;;;;;;;2.60;2.10;;;26.10;49.10;;;;;;5046328;28;20036;-52
2021/09/14 08:12:10;;;;;;;3.08;2.03;;;26.10;49.10;;;;;;5049849;28;20040;-55
2021/09/14 08:14:35;;;;;;;2.55;2.00;;;26.10;49.10;;;;;;5051516;28;20036;-47
2021/09/14 08:17:02;;;;;;;2.53;1.98;;;26.10;49.00;;;;;;5049494;28;20168;-56
2021/09/14 08:19:28;;;;;;;2.90;2.00;;;26.10;49.00;;;;;;5051507;28;20033;-59
2021/09/14 08:21:54;;;;;;;3.30;1.95;;;26.20;49.10;;;;;;5062702;28;20068;-54
2021/09/14 08:24:20;;;;;;;2.78;1.95;;;26.20;49.10;;;;;;5037704;28;20025;-59
2021/09/14 08:26:47;;;;;;;2.50;1.98;;;26.20;49.10;;;;;;5033806;28;20082;-57
2021/09/14 08:29:13;;;;;;;2.42;1.98;;;26.20;49.10;;;;;;5047699;28;20400;-51
2021/09/14 08:31:38;;;;;;;2.13;1.77;;;26.20;49.10;;;;;;5049033;28;20047;-59
2021/09/14 08:34:05;;;;;;;3.22;1.92;;;26.20;49.10;;;;;;5052135;28;20037;-50
2021/09/14 08:36:32;;;;;;;2.70;2.00;;;26.20;49.10;;;;;;5050812;28;20033;-55
2021/09/14 08:38:58;;;;;;;2.50;1.80;;;26.20;49.10;;;;;;5032080;28;20179;-52
2021/09/14 08:41:24;;;;;;;2.10;1.70;;;26.20;49.10;;;;;;5057694;28;20091;-53
2021/09/14 08:43:51;;;;;;;2.40;1.80;;;26.20;49.10;;;;;;5051479;28;20029;-60
2021/09/14 08:46:20;;;;;;;2.72;2.08;;;26.20;49.10;;;;;;5044363;28;20091;-57
2021/09/14 08:48:47;;;;;;;2.80;2.03;;;26.20;49.10;;;;;;5057084;28;20025;-56
2021/09/14 08:51:13;;;;;;;2.20;1.73;;;26.30;49.20;;;;;;5046095;28;20143;-54
2021/09/14 08:53:39;;;;;;;2.72;2.00;;;26.30;49.20;;;;;;5045242;28;20079;-57
2021/09/14 08:56:06;;;;;;;2.95;1.83;;;26.20;49.20;;;;;;5059414;28;20544;-54
2021/09/14 08:58:32;;;;;;;2.70;2.05;;;26.30;49.30;;;;;;5057101;28;20033;-57
2021/09/14 09:00:58;;;;;;;2.38;1.80;;;26.30;49.20;;;;;;5050383;28;20068;-58
2021/09/14 09:03:29;;;;;;;2.92;2.10;;;26.30;49.30;;;;;;5056344;28;20074;-51
2021/09/14 09:05:56;;;;;;;2.17;1.77;;;26.30;49.30;;;;;;5068374;28;20021;-60
2021/09/14 09:08:30;;;;;;;2.58;1.85;;;26.30;49.30;;;;;;5061973;28;20033;-58
2021/09/14 09:11:02;;;;;;;2.45;1.90;;;26.30;49.30;;;;;;5052014;28;20010;-49
2021/09/14 09:13:33;;;;;;;2.55;1.90;;;26.30;49.30;;;;;;5055529;28;20040;-58
2021/09/14 09:15:59;;;;;;;2.45;1.90;;;26.40;49.30;;;;;;5055046;28;20040;-57
2021/09/14 09:18:26;;;;;;;2.22;1.70;;;26.40;49.30;;;;;;5040995;28;20030;-51
2021/09/14 09:20:59;;;;;;;2.53;1.80;;;26.30;49.30;;;;;;5046447;28;20117;-56
2021/09/14 09:23:25;;;;;;;2.40;1.83;;;26.30;49.30;;;;;;5034336;28;20044;-56
2021/09/14 09:26:02;;;;;;;2.03;1.60;;;26.40;49.40;;;;;;5056031;28;20025;-55
2021/09/14 09:28:28;;;;;;;3.33;1.90;;;26.40;49.40;;;;;;5051467;28;20017;-57
2021/09/14 09:30:57;;;;;;;2.65;2.00;;;26.40;49.30;;;;;;5053385;28;20040;-55
2021/09/14 09:33:31;;;;;;;2.20;1.80;;;26.40;49.40;;;;;;5053950;28;20061;-48
2021/09/14 09:36:09;;;;;;;2.17;1.70;;;26.40;49.40;;;;;;5041052;28;20392;-53
2021/09/14 09:38:48;;;;;;;3.03;1.90;;;26.40;49.30;;;;;;5049566;28;20144;-58
2021/09/14 09:41:18;;;;;;;2.40;1.90;;;26.40;49.30;;;;;;5045441;28;20036;-60
2021/09/14 09:43:44;;;;;;;1.95;1.58;;;26.40;49.30;;;;;;5044584;28;20063;-57
2021/09/14 09:46:18;;;;;;;2.20;1.70;;;26.50;49.40;;;;;;5054053;28;20045;-55
2021/09/14 09:48:43;;;;;;;2.40;1.90;;;26.40;49.30;;;;;;5051036;28;20044;-55
2021/09/14 09:51:09;;;;;;;2.28;1.70;;;26.50;49.40;;;;;;5037088;28;20025;-57
2021/09/14 09:53:36;;;;;;;2.42;1.90;;;26.40;49.30;;;;;;5056620;28;20125;-55
2021/09/14 09:56:03;;;;;;;2.42;1.80;;;26.50;49.30;;;;;;5062310;28;20058;-56
2021/09/14 09:58:29;;;;;;;2.63;1.90;;;26.50;49.40;;;;;;5042081;28;20030;-56
2021/09/14 10:01:11;;;;;;;2.38;1.90;;;26.50;49.40;;;;;;5043805;28;20033;-52
2021/09/14 10:03:45;;;;;;;2.13;1.60;;;26.50;49.40;;;;;;5030694;28;20136;-55
2021/09/14 10:06:13;;;;;;;1.90;1.58;;;26.50;49.40;;;;;;5036903;28;20022;-52
2021/09/14 10:08:39;;;;;;;2.20;1.60;;;26.50;49.40;;;;;;5050224;28;20108;-54
2021/09/14 10:11:05;;;;;;;2.17;1.60;;;26.50;49.50;;;;;;5047706;28;20033;-52
2021/09/14 10:13:40;;;;;;;1.98;1.50;;;26.50;49.60;;;;;;5033942;28;20036;-59
2021/09/14 10:16:08;;;;;;;2.92;1.80;;;26.50;49.60;;;;;;5052948;28;20483;-48
2021/09/14 10:18:34;;;;;;;2.10;1.55;;;26.50;49.70;;;;;;5034320;28;20651;-58
2021/09/14 10:21:03;;;;;;;3.67;1.63;;;26.60;49.70;;;;;;5039396;28;20031;-48
2021/09/14 10:23:38;;;;;;;2.10;1.70;;;26.60;49.60;;;;;;5041629;28;20038;-60
2021/09/14 10:26:08;;;;;;;2.53;1.90;;;26.60;49.60;;;;;;5053289;28;20029;-55
2021/09/14 10:28:51;;;;;;;2.50;1.90;;;26.60;49.50;;;;;;5046082;28;20347;-56
2021/09/14 10:31:26;;;;;;;2.22;1.70;;;26.60;49.50;;;;;;5049371;28;20045;-56
2021/09/14 10:34:11;;;;;;;2.20;1.65;;;26.70;49.50;;;;;;5049857;28;20033;-55
2021/09/14 10:36:41;;;;;;;1.90;1.50;;;26.60;49.50;;;;;;5040611;28;20032;-60
2021/09/14 10:39:20;;;;;;;2.35;1.60;;;26.60;49.50;;;;;;5056856;28;20029;-51
2021/09/14 10:41:49;;;;;;;1.63;1.33;;;26.60;49.60;;;;;;5043321;28;20596;-55
2021/09/14 10:44:27;;;;;;;2.10;1.60;;;26.60;49.70;;;;;;5030536;28;20141;-60
2021/09/14 10:47:06;;;;;;;2.08;1.52;;;26.60;50.00;;;;;;5043921;28;20029;-57
2021/09/14 10:49:59;;;;;;;1.77;1.50;;;26.60;49.60;;;;;;5056045;28;20112;-56
2021/09/14 10:52:37;;;;;;;2.15;1.30;;;26.70;49.70;;;;;;5057636;28;20475;-59
2021/09/14 10:55:15;;;;;;;2.00;1.63;;;26.70;49.90;;;;;;5067941;28;20033;-60
2021/09/14 10:57:50;;;;;;;3.13;1.43;;;26.70;49.70;;;;;;5039028;28;20045;-61
2021/09/14 11:00:18;;;;;;;2.25;1.80;;;26.70;49.70;;;;;;5031102;28;20294;-60
2021/09/14 11:02:55;;;;;;;2.28;1.50;;;26.70;49.70;;;;;;5039387;28;20361;-54
2021/09/14 11:05:26;;;;;;;1.73;1.40;;;26.70;49.80;;;;;;5048180;28;20096;-53
2021/09/14 11:08:04;;;;;;;1.90;1.60;;;26.70;49.70;;;;;;5041738;28;20351;-59
2021/09/14 11:10:41;;;;;;;2.08;1.70;;;26.80;49.70;;;;;;5039625;28;20039;-58
2021/09/14 11:13:08;;;;;;;1.88;1.50;;;26.80;49.70;;;;;;5038203;28;20201;-55
2021/09/14 11:15:34;;;;;;;1.80;1.58;;;26.80;49.70;;;;;;5042565;28;20504;-58
2021/09/14 11:18:00;;;;;;;2.20;1.70;;;26.80;49.70;;;;;;5038945;28;20078;-57
2021/09/14 11:20:29;;;;;;;2.10;1.65;;;26.80;49.70;;;;;;5036993;28;20036;-59
2021/09/14 11:22:56;;;;;;;1.70;1.40;;;26.80;49.70;;;;;;5033732;28;20486;-58
2021/09/14 11:25:26;;;;;;;2.17;1.55;;;26.80;49.70;;;;;;5042668;28;20457;-54
2021/09/14 11:28:10;;;;;;;2.13;1.65;;;26.80;49.70;;;;;;5041114;28;20043;-58
2021/09/14 11:30:36;;;;;;;1.95;1.42;;;26.80;49.70;;;;;;5035837;28;20041;-59
2021/09/14 11:33:03;;;;;;;2.03;1.67;;;26.80;49.70;;;;;;5032974;28;20136;-59
2021/09/14 11:35:39;;;;;;;1.95;1.73;;;26.80;49.70;;;;;;5039558;28;20184;-59
2021/09/14 11:38:08;;;;;;;2.15;1.70;;;26.80;49.70;;;;;;5036749;28;20143;-55
2021/09/14 11:40:43;;;;;;;2.05;1.65;;;26.80;49.80;;;;;;5033174;28;20068;-58
2021/09/14 11:43:09;;;;;;;2.15;1.70;;;26.80;49.70;;;;;;5030312;28;20120;-58
2021/09/14 11:45:36;;;;;;;2.75;1.80;;;26.80;49.70;;;;;;5038155;28;20033;-59
2021/09/14 11:48:02;;;;;;;2.38;1.70;;;26.80;49.70;;;;;;5028261;28;20116;-56
2021/09/14 11:50:35;;;;;;;2.00;1.67;;;26.80;49.70;;;;;;5033172;28;20107;-59
2021/09/14 11:53:06;;;;;;;2.40;1.60;;;26.80;49.70;;;;;;5040823;28;20338;-52
2021/09/14 11:55:33;;;;;;;1.83;1.50;;;26.80;49.70;;;;;;5031126;28;20108;-59
2021/09/14 11:58:00;;;;;;;2.00;1.52;;;26.80;49.80;;;;;;5025849;28;20029;-59
2021/09/14 12:00:45;;;;;;;1.90;1.52;;;26.80;49.80;;;;;;5032047;28;20034;-50
2021/09/14 12:03:11;;;;;;;2.00;1.58;;;26.80;49.90;;;;;;5050216;28;20026;-59
2021/09/14 12:05:37;;;;;;;1.92;1.55;;;26.80;49.90;;;;;;5042054;28;20462;-54
2021/09/14 12:08:09;;;;;;;2.53;1.50;;;26.90;49.90;;;;;;5053385;28;20327;-58
2021/09/14 12:10:43;;;;;;;2.00;1.33;;;26.90;50.00;;;;;;5034332;28;20049;-59
2021/09/14 12:13:14;;;;;;;1.75;1.40;;;26.90;49.90;;;;;;5033696;28;20111;-53
2021/09/14 12:15:40;;;;;;;1.95;1.50;;;26.90;49.90;;;;;;5051993;28;20035;-59
2021/09/14 12:18:05;;;;;;;1.85;1.42;;;26.90;50.00;;;;;;5036257;28;20029;-51
2021/09/14 12:20:33;;;;;;;1.92;1.50;;;26.90;50.00;;;;;;5033618;28;20037;-60
2021/09/14 12:22:58;;;;;;;1.77;1.42;;;26.90;50.00;;;;;;5039493;28;20060;-51
2021/09/14 12:25:24;;;;;;;1.92;1.50;;;27.00;50.10;;;;;;5036600;28;20021;-58
2021/09/14 12:27:50;;;;;;;2.17;1.63;;;27.00;50.10;;;;;;5029910;28;20025;-51
2021/09/14 12:30:15;;;;;;;1.85;1.50;;;27.00;50.10;;;;;;5036939;28;20048;-58
2021/09/14 12:32:41;;;;;;;2.30;1.70;;;27.00;50.10;;;;;;5036447;28;20124;-59
2021/09/14 12:35:07;;;;;;;1.75;1.50;;;27.00;50.10;;;;;;5034012;28;20025;-52
2021/09/14 12:37:33;;;;;;;2.10;1.48;;;27.00;50.10;;;;;;5033202;28;20061;-59
2021/09/14 12:39:59;;;;;;;1.67;1.40;;;27.00;50.10;;;;;;5034748;28;20053;-51
2021/09/14 12:42:24;;;;;;;1.73;1.45;;;27.00;50.10;;;;;;5033458;28;20033;-53
2021/09/14 12:44:50;;;;;;;1.85;1.35;;;27.00;50.10;;;;;;5031813;28;20021;-58
2021/09/14 12:47:15;;;;;;;2.63;1.60;;;27.00;50.10;;;;;;5035581;28;20416;-55
2021/09/14 12:49:41;;;;;;;2.22;1.60;;;27.00;50.10;;;;;;5038363;28;20025;-51
2021/09/14 12:52:07;;;;;;;1.90;1.42;;;27.10;50.20;;;;;;5039174;28;20029;-58
2021/09/14 12:54:32;;;;;;;1.90;1.40;;;27.10;50.20;;;;;;5041480;28;20465;-59
2021/09/14 12:56:58;;;;;;;1.88;1.50;;;27.10;50.20;;;;;;5040439;28;20136;-54
2021/09/14 12:59:24;;;;;;;2.05;1.50;;;27.10;50.10;;;;;;5040080;28;20462;-60
2021/09/14 13:01:49;;;;;;;1.73;1.40;;;27.10;50.20;;;;;;5036734;28;20046;-58
2021/09/14 13:04:15;;;;;;;1.70;1.30;;;27.10;50.20;;;;;;5036459;28;20047;-59
2021/09/14 13:06:41;;;;;;;1.75;1.42;;;27.10;50.30;;;;;;5041826;28;20021;-61
2021/09/14 13:09:06;;;;;;;1.80;1.40;;;27.10;50.30;;;;;;5042095;28;20025;-50
2021/09/14 13:11:32;;;;;;;2.03;1.52;;;27.10;50.30;;;;;;5044236;28;20124;-59
2021/09/14 13:16:41;;;;;;;1.83;1.60;;;27.10;50.20;;;;;;5047526;28;20436;-55
2021/09/14 13:19:07;;;;;;;1.73;1.40;;;27.10;50.10;;;;;;5046315;28;20040;-53
2021/09/14 13:21:33;;;;;;;1.95;1.60;;;27.20;50.20;;;;;;5041599;28;20392;-54
2021/09/14 13:23:58;;;;;;;2.83;1.50;;;27.20;50.20;;;;;;5039161;28;20461;-54
2021/09/14 13:26:25;;;;;;;1.70;1.40;;;27.20;50.20;;;;;;5040069;28;20017;-52
2021/09/14 13:28:51;;;;;;;1.83;1.40;;;27.20;50.20;;;;;;5042648;28;20044;-58
2021/09/14 13:31:17;;;;;;;2.10;1.63;;;27.20;50.20;;;;;;5041082;28;22010;-56
2021/09/14 13:33:44;;;;;;;1.73;1.42;;;27.20;50.20;;;;;;5037613;28;20772;-57
2021/09/14 13:36:10;;;;;;;1.80;1.52;;;27.20;50.20;;;;;;5040198;28;20033;-58
2021/09/14 13:38:35;;;;;;;1.95;1.40;;;27.20;50.20;;;;;;5049286;28;20162;-57
2021/09/14 13:41:10;;;;;;;1.38;1.10;;;27.30;50.20;;;;;;5037112;28;20957;-57
2021/09/14 13:46:10;;;;;;;2.13;1.38;;;27.20;50.20;;;;;;5042918;28;20037;-61
2021/09/14 13:48:36;;;;;;;1.85;1.48;;;27.30;50.20;;;;;;5041323;28;20118;-56